Time;durP1;ratioP1;P1;durP2;ratioP2;P2;SDS_P1;SDS_P2;PMS_P1;PMS_P2;Temp;Humidity;BMP_temperature;BMP_pressure;BME280_temperature;BME280_humidity;BME280_pressure;Samples;Min_cycle;Max_cycle;Signal;HPM_P1;HPM_P2
2023/01/15 00:02:26;;;;;;;4.17;2.83;;;;;;;;;;5094939;28;20462;-71
2023/01/15 00:04:55;;;;;;;3.60;2.63;;;;;;;;;;5094224;28;20483;-71
2023/01/15 00:07:22;;;;;;;3.13;2.40;;;;;;;;;;5095012;28;20549;-72
2023/01/15 00:09:50;;;;;;;3.80;2.50;;;;;;;;;;5094723;28;20478;-71
2023/01/15 00:12:17;;;;;;;3.90;2.77;;;;;;;;;;5095093;28;20454;-71
2023/01/15 00:14:44;;;;;;;5.20;2.77;;;;;;;;;;5093989;28;20449;-71
2023/01/15 00:17:11;;;;;;;3.40;2.30;;;;;;;;;;5094624;28;20457;-71
2023/01/15 00:19:38;;;;;;;2.93;2.20;;;;;;;;;;5094635;28;20968;-70
2023/01/15 00:22:07;;;;;;;2.97;2.20;;;;;;;;;;5094484;28;20458;-71
2023/01/15 00:30:03;;;;;;;2.83;2.07;;;;;;;;;;5092140;28;20954;-71
2023/01/15 00:32:31;;;;;;;2.67;2.23;;;;;;;;;;5094654;28;20430;-71
2023/01/15 00:34:58;;;;;;;4.33;2.07;;;;;;;;;;5093834;28;20943;-71
2023/01/15 00:37:27;;;;;;;5.40;1.80;;;;;;;;;;5094529;28;20477;-71
2023/01/15 00:39:54;;;;;;;3.87;1.60;;;;;;;;;;5094220;28;20466;-71
2023/01/15 00:42:21;;;;;;;2.10;1.60;;;;;;;;;;5094232;28;20465;-70
2023/01/15 00:44:48;;;;;;;3.10;1.80;;;;;;;;;;5093357;28;20513;-72
2023/01/15 00:47:15;;;;;;;3.33;1.70;;;;;;;;;;5094120;28;20871;-71
2023/01/15 00:49:43;;;;;;;2.33;1.70;;;;;;;;;;5093805;28;20474;-71
2023/01/15 00:52:10;;;;;;;2.70;2.00;;;;;;;;;;5094084;28;20451;-71
2023/01/15 00:54:39;;;;;;;3.00;1.60;;;;;;;;;;5093668;28;20443;-71
2023/01/15 00:57:06;;;;;;;2.20;1.60;;;;;;;;;;5093865;28;20972;-71
2023/01/15 00:59:33;;;;;;;3.30;1.80;;;;;;;;;;5093967;28;20470;-71
2023/01/15 01:02:00;;;;;;;2.97;2.13;;;;;;;;;;5093769;28;20458;-71
2023/01/15 01:04:27;;;;;;;2.50;1.90;;;;;;;;;;5093469;28;20451;-72
2023/01/15 01:06:54;;;;;;;2.10;1.53;;;;;;;;;;5093935;28;20450;-70
2023/01/15 01:09:21;;;;;;;1.97;1.67;;;;;;;;;;5093502;28;20470;-70
2023/01/15 01:11:51;;;;;;;2.63;1.73;;;;;;;;;;5093362;28;20446;-71
2023/01/15 01:14:18;;;;;;;1.80;1.47;;;;;;;;;;5092863;28;20443;-71
2023/01/15 01:16:45;;;;;;;2.90;1.50;;;;;;;;;;5093443;28;20446;-71
2023/01/15 01:19:13;;;;;;;3.07;1.90;;;;;;;;;;5093370;28;20474;-71
2023/01/15 01:21:40;;;;;;;2.63;1.57;;;;;;;;;;5093292;28;20462;-72
2023/01/15 01:24:08;;;;;;;5.63;1.83;;;;;;;;;;5092660;28;20450;-71
2023/01/15 01:26:35;;;;;;;2.37;1.50;;;;;;;;;;5093421;28;20576;-71
2023/01/15 01:29:04;;;;;;;2.30;1.43;;;;;;;;;;5093101;28;20470;-71
2023/01/15 01:31:31;;;;;;;2.23;1.53;;;;;;;;;;5091078;28;20950;-71
2023/01/15 01:33:59;;;;;;;3.30;1.33;;;;;;;;;;5092939;28;20444;-71
2023/01/15 01:36:28;;;;;;;2.83;1.70;;;;;;;;;;5093237;28;20454;-71
2023/01/15 01:38:55;;;;;;;2.50;1.57;;;;;;;;;;5092918;28;20991;-71
2023/01/15 01:41:22;;;;;;;2.87;1.23;;;;;;;;;;5093170;28;20458;-71
2023/01/15 01:43:59;;;;;;;2.03;1.40;;;;;;;;;;5092531;28;20470;-71
2023/01/15 01:46:28;;;;;;;1.90;1.40;;;;;;;;;;5092902;28;20486;-70
2023/01/15 01:48:56;;;;;;;2.70;1.77;;;;;;;;;;5092940;28;20884;-71
2023/01/15 01:51:25;;;;;;;3.23;1.23;;;;;;;;;;5092996;28;20451;-71
2023/01/15 01:53:52;;;;;;;2.90;1.50;;;;;;;;;;5092480;28;20962;-71
2023/01/15 01:56:20;;;;;;;2.10;1.50;;;;;;;;;;5092852;28;20447;-71
2023/01/15 01:58:48;;;;;;;3.27;1.87;;;;;;;;;;5092889;28;20497;-72
2023/01/15 02:01:16;;;;;;;1.60;1.30;;;;;;;;;;5093197;28;20442;-71
2023/01/15 02:03:45;;;;;;;5.37;1.30;;;;;;;;;;5092235;28;20454;-72
2023/01/15 02:06:13;;;;;;;2.87;1.40;;;;;;;;;;5092540;28;21007;-71
2023/01/15 02:08:41;;;;;;;1.90;1.30;;;;;;;;;;5092889;28;20496;-71
2023/01/15 02:11:08;;;;;;;1.50;1.10;;;;;;;;;;5092500;28;20454;-71
2023/01/15 02:13:37;;;;;;;2.17;1.43;;;;;;;;;;5092438;28;20905;-71
2023/01/15 02:16:09;;;;;;;3.43;2.27;;;;;;;;;;5092917;28;20487;-71
2023/01/15 02:18:39;;;;;;;3.93;2.93;;;;;;;;;;5092854;28;21002;-71
2023/01/15 02:21:11;;;;;;;4.03;2.17;;;;;;;;;;5094661;28;20436;-71
2023/01/15 02:23:57;;;;;;;3.87;1.90;;;;;;;;;;5096546;28;20817;-71
2023/01/15 02:26:41;;;;;;;2.03;1.60;;;;;;;;;;5097035;28;20840;-71
2023/01/15 02:29:13;;;;;;;2.57;1.77;;;;;;;;;;5086462;28;20975;-72
2023/01/15 02:31:42;;;;;;;2.27;1.87;;;;;;;;;;5095433;28;20458;-70
2023/01/15 02:34:12;;;;;;;2.00;1.33;;;;;;;;;;5096145;28;20450;-71
2023/01/15 02:36:41;;;;;;;3.57;1.60;;;;;;;;;;5096896;28;20810;-71
2023/01/15 02:39:10;;;;;;;2.13;1.60;;;;;;;;;;5096453;28;20466;-71
2023/01/15 02:41:40;;;;;;;1.73;1.30;;;;;;;;;;5096445;28;20442;-72
2023/01/15 02:44:08;;;;;;;1.80;1.40;;;;;;;;;;5096028;28;20951;-71
2023/01/15 02:46:38;;;;;;;1.40;1.27;;;;;;;;;;5096294;28;20483;-71
2023/01/15 02:49:07;;;;;;;3.20;1.57;;;;;;;;;;5096320;28;20471;-71
2023/01/15 02:51:37;;;;;;;2.67;1.60;;;;;;;;;;5096260;28;20454;-71
2023/01/15 02:54:07;;;;;;;2.67;1.67;;;;;;;;;;5095684;28;20465;-71
2023/01/15 02:56:35;;;;;;;2.40;1.70;;;;;;;;;;5096481;28;20435;-71
2023/01/15 02:59:06;;;;;;;2.53;1.60;;;;;;;;;;5096409;28;21020;-71
2023/01/15 03:01:37;;;;;;;2.47;1.50;;;;;;;;;;5096300;28;20454;-71
2023/01/15 03:04:08;;;;;;;2.27;1.57;;;;;;;;;;5095685;28;20451;-71
2023/01/15 03:06:37;;;;;;;3.10;1.80;;;;;;;;;;5095968;28;20482;-71
2023/01/15 03:09:05;;;;;;;2.03;1.30;;;;;;;;;;5096085;28;20485;-71
2023/01/15 03:11:36;;;;;;;2.27;1.30;;;;;;;;;;5095975;28;20458;-71
2023/01/15 03:14:05;;;;;;;2.60;1.20;;;;;;;;;;5095701;28;21027;-71
2023/01/15 03:16:34;;;;;;;3.00;1.80;;;;;;;;;;5095623;28;20462;-71
2023/01/15 03:19:03;;;;;;;2.37;1.60;;;;;;;;;;5095565;28;20477;-71
2023/01/15 03:21:32;;;;;;;1.97;1.47;;;;;;;;;;5095867;28;20450;-71
2023/01/15 03:24:02;;;;;;;2.57;1.50;;;;;;;;;;5094937;28;20469;-71
2023/01/15 03:26:29;;;;;;;2.43;1.50;;;;;;;;;;5095741;28;20987;-72
2023/01/15 03:28:57;;;;;;;1.80;1.47;;;;;;;;;;5096549;28;21041;-71
2023/01/15 03:31:24;;;;;;;3.27;1.53;;;;;;;;;;5094314;28;20450;-71
2023/01/15 03:33:51;;;;;;;1.70;1.47;;;;;;;;;;5094119;28;20454;-71
2023/01/15 03:36:18;;;;;;;2.30;1.50;;;;;;;;;;5095818;28;20936;-71
2023/01/15 03:38:49;;;;;;;2.20;1.70;;;;;;;;;;5095497;28;20878;-71
2023/01/15 03:41:25;;;;;;;1.60;1.20;;;;;;;;;;5095739;28;20455;-71
2023/01/15 03:44:02;;;;;;;2.33;1.40;;;;;;;;;;5094567;28;20458;-71
2023/01/15 03:46:36;;;;;;;1.63;1.30;;;;;;;;;;5095471;28;20998;-71
2023/01/15 03:49:09;;;;;;;2.00;1.43;;;;;;;;;;5094382;28;20466;-71
2023/01/15 03:51:39;;;;;;;1.87;1.43;;;;;;;;;;5095199;28;20552;-71
2023/01/15 03:54:09;;;;;;;1.70;1.30;;;;;;;;;;5080975;28;20452;-71
2023/01/15 03:56:39;;;;;;;2.00;1.30;;;;;;;;;;5074843;28;20450;-71
2023/01/15 03:59:09;;;;;;;1.60;1.17;;;;;;;;;;5075158;28;20464;-71
2023/01/15 04:01:38;;;;;;;3.67;1.67;;;;;;;;;;5074818;28;20994;-71
2023/01/15 04:04:06;;;;;;;3.00;1.63;;;;;;;;;;5074181;28;20451;-71
2023/01/15 04:06:35;;;;;;;3.80;1.90;;;;;;;;;;5074661;28;20494;-71
2023/01/15 04:09:03;;;;;;;2.63;1.77;;;;;;;;;;5074338;28;20494;-71
2023/01/15 04:11:32;;;;;;;3.20;1.80;;;;;;;;;;5074559;28;20530;-71
2023/01/15 04:13:59;;;;;;;4.17;1.80;;;;;;;;;;5074459;28;20470;-71
2023/01/15 04:16:27;;;;;;;2.33;1.37;;;;;;;;;;5074629;28;20459;-71
2023/01/15 04:18:55;;;;;;;1.87;1.20;;;;;;;;;;5074304;28;20476;-71
2023/01/15 04:21:22;;;;;;;1.97;1.47;;;;;;;;;;5074373;28;20452;-71
2023/01/15 04:23:49;;;;;;;2.20;1.43;;;;;;;;;;5073968;28;20458;-71
2023/01/15 04:26:16;;;;;;;2.63;1.40;;;;;;;;;;5074392;28;20479;-71
2023/01/15 04:28:45;;;;;;;3.43;1.73;;;;;;;;;;5074269;28;20472;-71
2023/01/15 04:31:12;;;;;;;2.23;1.13;;;;;;;;;;5073452;28;20456;-71
2023/01/15 04:33:39;;;;;;;1.60;1.30;;;;;;;;;;5074052;28;20463;-71
2023/01/15 04:36:07;;;;;;;10.53;4.37;;;;;;;;;;5074206;28;20505;-71
2023/01/15 04:38:34;;;;;;;15.53;3.50;;;;;;;;;;5074337;28;20478;-71
2023/01/15 04:44:06;;;;;;;4.83;2.10;;;;;;;;;;5073175;28;20447;-70
2023/01/15 04:46:33;;;;;;;3.37;1.60;;;;;;;;;;5073801;28;20576;-71
2023/01/15 04:49:01;;;;;;;3.40;2.23;;;;;;;;;;5073667;28;20467;-71
2023/01/15 04:51:28;;;;;;;2.03;1.67;;;;;;;;;;5073845;28;20441;-70
2023/01/15 04:53:55;;;;;;;4.50;2.00;;;;;;;;;;5073117;28;20785;-71
2023/01/15 04:56:22;;;;;;;3.00;1.87;;;;;;;;;;5073717;28;20458;-70
2023/01/15 04:58:50;;;;;;;3.00;1.60;;;;;;;;;;5073404;28;20468;-71
2023/01/15 05:01:18;;;;;;;3.03;2.40;;;;;;;;;;5073392;28;20454;-71
2023/01/15 05:03:45;;;;;;;2.67;1.97;;;;;;;;;;5073307;28;20479;-71
2023/01/15 05:06:13;;;;;;;3.03;2.07;;;;;;;;;;5073561;28;20545;-71
2023/01/15 05:08:40;;;;;;;3.50;2.67;;;;;;;;;;5073405;28;20843;-71
2023/01/15 05:11:08;;;;;;;3.67;2.50;;;;;;;;;;5073788;28;20452;-70
2023/01/15 05:13:36;;;;;;;5.87;3.83;;;;;;;;;;5073281;28;21068;-71
2023/01/15 05:16:11;;;;;;;5.60;3.50;;;;;;;;;;5073260;28;20456;-71
2023/01/15 05:18:38;;;;;;;4.07;2.30;;;;;;;;;;5073321;28;20467;-71
2023/01/15 05:21:06;;;;;;;2.50;2.00;;;;;;;;;;5073230;28;20486;-71
2023/01/15 05:23:33;;;;;;;3.13;1.97;;;;;;;;;;5072854;28;20944;-71
2023/01/15 05:26:03;;;;;;;4.90;2.20;;;;;;;;;;5072979;28;20933;-71
2023/01/15 05:28:30;;;;;;;3.37;2.40;;;;;;;;;;5073310;28;20988;-71
2023/01/15 05:30:57;;;;;;;4.60;2.27;;;;;;;;;;5072189;28;20452;-71
2023/01/15 05:33:25;;;;;;;6.30;2.20;;;;;;;;;;5073103;28;20451;-71
2023/01/15 05:35:52;;;;;;;2.87;2.00;;;;;;;;;;5073127;28;20458;-71
2023/01/15 05:38:19;;;;;;;3.07;2.27;;;;;;;;;;5073178;28;20471;-71
2023/01/15 05:40:46;;;;;;;3.73;2.50;;;;;;;;;;5073005;28;20465;-71
2023/01/15 05:43:14;;;;;;;3.57;2.40;;;;;;;;;;5072877;28;20471;-71
2023/01/15 05:45:41;;;;;;;7.47;4.37;;;;;;;;;;5072419;28;20456;-70
2023/01/15 05:48:08;;;;;;;6.40;2.90;;;;;;;;;;5072797;28;20491;-71
2023/01/15 05:50:36;;;;;;;4.90;2.57;;;;;;;;;;5073066;28;20805;-71
2023/01/15 05:53:03;;;;;;;4.87;3.57;;;;;;;;;;5072958;28;20448;-70
2023/01/15 05:55:30;;;;;;;4.07;2.63;;;;;;;;;;5071852;28;20465;-70
2023/01/15 05:57:57;;;;;;;5.77;2.70;;;;;;;;;;5072683;28;20452;-71
2023/01/15 06:00:25;;;;;;;6.47;3.30;;;;;;;;;;5072708;28;20447;-71
2023/01/15 06:02:52;;;;;;;10.20;3.83;;;;;;;;;;5072651;28;20483;-71
2023/01/15 06:05:19;;;;;;;7.97;3.77;;;;;;;;;;5072665;28;20447;-70
2023/01/15 06:07:51;;;;;;;8.70;3.43;;;;;;;;;;5072462;28;20499;-71
2023/01/15 06:10:19;;;;;;;4.50;3.23;;;;;;;;;;5072670;28;20466;-71
2023/01/15 06:12:46;;;;;;;5.17;3.23;;;;;;;;;;5072863;28;20452;-71
2023/01/15 06:15:13;;;;;;;8.33;4.23;;;;;;;;;;5072441;28;20451;-71
2023/01/15 06:17:40;;;;;;;6.60;3.70;;;;;;;;;;5072735;28;20796;-71
2023/01/15 06:20:07;;;;;;;6.50;4.00;;;;;;;;;;5072609;28;20480;-70
2023/01/15 06:22:35;;;;;;;6.63;2.97;;;;;;;;;;5072964;28;20448;-71
2023/01/15 06:25:04;;;;;;;8.03;4.20;;;;;;;;;;5072115;28;20494;-71
2023/01/15 06:27:31;;;;;;;7.37;4.30;;;;;;;;;;5072310;28;20494;-70
2023/01/15 06:29:58;;;;;;;7.47;3.80;;;;;;;;;;5071128;28;20476;-71
2023/01/15 06:32:26;;;;;;;6.07;3.33;;;;;;;;;;5072573;28;20945;-71
2023/01/15 06:34:53;;;;;;;8.60;7.17;;;;;;;;;;5071882;28;20452;-71
2023/01/15 06:37:20;;;;;;;7.50;5.10;;;;;;;;;;5072382;28;20967;-71
2023/01/15 06:39:47;;;;;;;113.80;60.57;;;;;;;;;;5072505;28;20464;-71
2023/01/15 06:47:45;;;;;;;77.50;43.50;;;;;;;;;;5072055;28;20851;-71
2023/01/15 06:50:13;;;;;;;40.17;22.23;;;;;;;;;;5072418;28;20451;-71
2023/01/15 06:52:40;;;;;;;9.03;5.70;;;;;;;;;;5072346;28;20928;-71
2023/01/15 06:55:07;;;;;;;11.63;4.33;;;;;;;;;;5071789;28;20456;-71
2023/01/15 06:57:38;;;;;;;5.37;3.40;;;;;;;;;;5071433;28;20451;-71
2023/01/15 07:00:06;;;;;;;5.33;2.60;;;;;;;;;;5071860;28;20503;-71
2023/01/15 07:02:33;;;;;;;38.60;14.10;;;;;;;;;;5072074;28;20452;-71
2023/01/15 07:05:00;;;;;;;307.73;102.33;;;;;;;;;;5071473;28;20452;-71
2023/01/15 07:07:28;;;;;;;14.90;7.63;;;;;;;;;;5073957;28;21003;-71
2023/01/15 07:09:55;;;;;;;7.43;4.10;;;;;;;;;;5076009;28;20815;-71
2023/01/15 07:12:23;;;;;;;9.97;6.60;;;;;;;;;;5075812;28;20462;-71
2023/01/15 07:14:51;;;;;;;20.63;13.33;;;;;;;;;;5075307;28;20456;-71
2023/01/15 07:17:19;;;;;;;19.90;13.67;;;;;;;;;;5075978;28;20451;-71
2023/01/15 07:19:47;;;;;;;14.53;8.13;;;;;;;;;;5075485;28;20471;-71
2023/01/15 07:22:14;;;;;;;15.53;11.83;;;;;;;;;;5075565;28;20443;-71
2023/01/15 07:24:41;;;;;;;10.53;7.60;;;;;;;;;;5075165;28;20967;-71
2023/01/15 07:27:09;;;;;;;14.17;11.03;;;;;;;;;;5075464;28;20956;-71
2023/01/15 07:29:36;;;;;;;19.37;13.97;;;;;;;;;;5075473;28;20474;-71
2023/01/15 07:32:04;;;;;;;12.53;7.50;;;;;;;;;;5074096;28;20824;-71
2023/01/15 07:34:32;;;;;;;11.33;6.40;;;;;;;;;;5074812;28;20458;-70
2023/01/15 07:36:59;;;;;;;10.83;6.63;;;;;;;;;;5075312;28;20447;-71
2023/01/15 07:39:27;;;;;;;10.30;6.57;;;;;;;;;;5075196;28;20849;-71
2023/01/15 07:50:12;;;;;;;11.93;9.17;;;;;;;;;;5075019;28;20427;-71
2023/01/15 07:52:39;;;;;;;17.00;10.13;;;;;;;;;;5074762;28;20462;-71
2023/01/15 07:55:07;;;;;;;12.37;8.70;;;;;;;;;;5074460;28;20459;-70
2023/01/15 07:57:34;;;;;;;10.03;7.70;;;;;;;;;;5075001;28;20554;-70
2023/01/15 08:00:01;;;;;;;14.07;7.37;;;;;;;;;;5074973;28;20475;-70
2023/01/15 08:02:30;;;;;;;10.97;6.93;;;;;;;;;;5074697;28;20467;-70
2023/01/15 08:04:57;;;;;;;8.03;6.80;;;;;;;;;;5074265;28;20452;-70
2023/01/15 08:07:24;;;;;;;13.10;8.90;;;;;;;;;;5074612;28;20491;-70
2023/01/15 08:09:51;;;;;;;13.77;6.20;;;;;;;;;;5074587;28;20976;-71
2023/01/15 08:15:15;;;;;;;6.30;5.07;;;;;;;;;;5073961;28;20430;-70
2023/01/15 08:17:45;;;;;;;6.27;4.70;;;;;;;;;;5074053;28;20464;-70
2023/01/15 08:20:13;;;;;;;7.77;5.67;;;;;;;;;;5073888;28;20455;-72
2023/01/15 08:22:41;;;;;;;7.27;5.67;;;;;;;;;;5074379;28;20452;-72
2023/01/15 08:25:09;;;;;;;5.70;4.53;;;;;;;;;;5073752;28;20459;-73
2023/01/15 08:27:36;;;;;;;4.27;3.47;;;;;;;;;;5071466;28;20492;-73
2023/01/15 08:30:04;;;;;;;4.70;4.27;;;;;;;;;;5071034;28;21036;-71
2023/01/15 08:32:31;;;;;;;7.23;4.77;;;;;;;;;;5074100;28;20829;-71
2023/01/15 08:34:59;;;;;;;5.77;4.70;;;;;;;;;;5073538;28;20475;-71
2023/01/15 08:37:26;;;;;;;6.90;4.20;;;;;;;;;;5074132;28;20455;-72
2023/01/15 08:39:53;;;;;;;26.63;11.50;;;;;;;;;;5074005;28;20980;-71
2023/01/15 08:42:21;;;;;;;6.40;4.60;;;;;;;;;;5074131;28;20835;-71
2023/01/15 08:44:48;;;;;;;6.17;4.03;;;;;;;;;;5073408;28;20455;-71
2023/01/15 08:47:15;;;;;;;6.10;4.30;;;;;;;;;;5073616;28;20483;-71
2023/01/15 08:49:42;;;;;;;5.37;4.30;;;;;;;;;;5073976;28;20474;-71
2023/01/15 08:52:10;;;;;;;4.50;3.30;;;;;;;;;;5074046;28;20454;-70
2023/01/15 08:54:37;;;;;;;4.67;3.40;;;;;;;;;;5073175;28;20474;-70
2023/01/15 08:57:05;;;;;;;4.60;3.50;;;;;;;;;;5073633;28;20464;-70
2023/01/15 08:59:32;;;;;;;5.57;3.30;;;;;;;;;;5073563;28;20471;-71
2023/01/15 09:01:59;;;;;;;7.60;3.70;;;;;;;;;;5073630;28;20455;-71
2023/01/15 09:04:26;;;;;;;4.80;3.47;;;;;;;;;;5073081;28;20452;-71
2023/01/15 09:06:53;;;;;;;4.70;3.40;;;;;;;;;;5073237;28;20448;-72
2023/01/15 09:09:21;;;;;;;6.60;4.37;;;;;;;;;;5073340;28;20498;-71
2023/01/15 09:11:48;;;;;;;5.80;4.40;;;;;;;;;;5073389;28;20452;-71
2023/01/15 09:14:16;;;;;;;6.23;3.50;;;;;;;;;;5069748;28;20459;-71
2023/01/15 09:16:43;;;;;;;5.67;3.40;;;;;;;;;;5073369;28;20460;-71
2023/01/15 09:19:11;;;;;;;4.60;3.00;;;;;;;;;;5072834;28;20480;-71
2023/01/15 09:21:38;;;;;;;4.40;3.27;;;;;;;;;;5073079;28;20459;-70
2023/01/15 09:24:05;;;;;;;6.50;4.20;;;;;;;;;;5072738;28;20448;-71
2023/01/15 09:26:34;;;;;;;4.50;3.10;;;;;;;;;;5073140;28;20464;-71
2023/01/15 09:29:02;;;;;;;6.90;4.10;;;;;;;;;;5072540;28;20488;-71
2023/01/15 09:31:30;;;;;;;7.90;4.80;;;;;;;;;;5071706;28;20452;-71
2023/01/15 09:33:57;;;;;;;8.47;5.17;;;;;;;;;;5072338;28;20945;-71
2023/01/15 09:36:26;;;;;;;5.73;4.60;;;;;;;;;;5072967;28;20550;-71
2023/01/15 09:38:53;;;;;;;8.20;5.73;;;;;;;;;;5072551;28;20482;-72
2023/01/15 09:44:16;;;;;;;7.13;4.30;;;;;;;;;;5072160;28;20450;-73
2023/01/15 09:46:49;;;;;;;8.10;5.33;;;;;;;;;;5073129;28;20451;-72
2023/01/15 09:49:22;;;;;;;20.80;9.50;;;;;;;;;;5072843;28;20908;-72
2023/01/15 09:51:54;;;;;;;31.17;12.13;;;;;;;;;;5072548;28;20466;-71
2023/01/15 09:54:27;;;;;;;26.97;11.80;;;;;;;;;;5072221;28;20459;-72
2023/01/15 09:56:55;;;;;;;29.60;14.73;;;;;;;;;;5072008;28;20960;-72
2023/01/15 09:59:30;;;;;;;20.77;11.63;;;;;;;;;;5072586;28;20475;-71
2023/01/15 10:01:57;;;;;;;18.60;10.40;;;;;;;;;;5072712;28;20432;-71
2023/01/15 10:04:29;;;;;;;12.60;8.43;;;;;;;;;;5072042;28;20463;-71
2023/01/15 10:07:00;;;;;;;8.90;5.73;;;;;;;;;;5072692;28;20451;-71
2023/01/15 10:09:33;;;;;;;6.27;3.30;;;;;;;;;;5072175;28;20496;-72
2023/01/15 10:14:56;;;;;;;11.67;6.00;;;;;;;;;;5072029;28;20565;-71
2023/01/15 10:17:26;;;;;;;9.63;5.93;;;;;;;;;;5072733;28;20473;-72
2023/01/15 10:19:54;;;;;;;8.23;5.57;;;;;;;;;;5069660;28;20960;-73
2023/01/15 10:22:29;;;;;;;8.60;4.40;;;;;;;;;;5091243;28;20447;-73
2023/01/15 10:24:57;;;;;;;16.37;9.43;;;;;;;;;;5090623;28;20457;-72
2023/01/15 10:27:25;;;;;;;11.50;8.03;;;;;;;;;;5090323;28;20458;-72
2023/01/15 10:29:56;;;;;;;4.30;3.90;;;;;;;;;;5087567;28;20474;-73
2023/01/15 10:32:28;;;;;;;6.53;3.53;;;;;;;;;;5091176;28;20434;-71
2023/01/15 10:35:07;;;;;;;5.13;4.10;;;;;;;;;;5090722;28;20480;-72
2023/01/15 10:37:40;;;;;;;5.70;4.43;;;;;;;;;;5090993;28;20461;-72
2023/01/15 10:40:23;;;;;;;10.27;6.17;;;;;;;;;;5090886;28;21003;-72
2023/01/15 10:42:52;;;;;;;8.50;5.73;;;;;;;;;;5093772;28;20955;-72
2023/01/15 10:45:23;;;;;;;12.57;7.77;;;;;;;;;;5094961;28;20461;-72
2023/01/15 10:47:52;;;;;;;8.07;5.33;;;;;;;;;;5094647;28;21002;-72
2023/01/15 10:50:20;;;;;;;5.40;3.80;;;;;;;;;;5095078;28;20962;-72
2023/01/15 10:52:48;;;;;;;5.50;3.40;;;;;;;;;;5095192;28;20810;-71
2023/01/15 10:55:19;;;;;;;12.07;8.07;;;;;;;;;;5094629;28;20951;-73
2023/01/15 10:57:50;;;;;;;18.83;11.77;;;;;;;;;;5094396;28;20442;-72
2023/01/15 11:00:19;;;;;;;4.20;3.53;;;;;;;;;;5094953;28;20535;-72
2023/01/15 11:02:50;;;;;;;6.13;4.90;;;;;;;;;;5095058;28;20544;-72
2023/01/15 11:05:18;;;;;;;4.40;3.93;;;;;;;;;;5094027;28;20458;-72
2023/01/15 11:07:46;;;;;;;6.67;4.67;;;;;;;;;;5094184;28;20889;-72
2023/01/15 11:10:15;;;;;;;9.50;6.20;;;;;;;;;;5094769;28;20819;-72
2023/01/15 11:21:11;;;;;;;3.43;2.20;;;;;;;;;;5094254;28;20430;-72
2023/01/15 11:23:38;;;;;;;4.00;2.27;;;;;;;;;;5094016;28;20434;-72
2023/01/15 11:26:05;;;;;;;2.23;1.63;;;;;;;;;;5094042;28;20461;-71
2023/01/15 11:28:35;;;;;;;2.13;1.50;;;;;;;;;;5094038;28;20863;-72
2023/01/15 11:31:02;;;;;;;1.73;1.40;;;;;;;;;;5092667;28;20476;-72
2023/01/15 11:33:31;;;;;;;1.90;1.67;;;;;;;;;;5093689;28;20435;-72
2023/01/15 11:35:59;;;;;;;2.07;1.80;;;;;;;;;;5093603;28;20583;-72
2023/01/15 11:38:28;;;;;;;3.13;1.70;;;;;;;;;;5093864;28;20471;-72
2023/01/15 11:40:58;;;;;;;1.50;1.00;;;;;;;;;;5093753;28;20450;-72
2023/01/15 11:51:57;;;;;;;1.30;0.90;;;;;;;;;;5094233;28;20790;-69
2023/01/15 11:54:25;;;;;;;1.60;1.10;;;;;;;;;;5093213;28;20935;-69
2023/01/15 11:56:53;;;;;;;1.20;0.93;;;;;;;;;;5094236;28;20487;-69
2023/01/15 11:59:20;;;;;;;2.33;1.50;;;;;;;;;;5094358;28;20478;-69
2023/01/15 12:01:57;;;;;;;1.70;1.10;;;;;;;;;;5094413;28;20454;-69
2023/01/15 12:04:30;;;;;;;2.10;1.90;;;;;;;;;;5094122;28;20434;-70
2023/01/15 12:06:58;;;;;;;2.30;1.70;;;;;;;;;;5094222;28;20461;-69
2023/01/15 12:09:29;;;;;;;4.17;2.47;;;;;;;;;;5093893;28;20497;-69
2023/01/15 12:12:03;;;;;;;1.90;1.43;;;;;;;;;;5094173;28;20435;-69
2023/01/15 12:14:48;;;;;;;1.90;1.50;;;;;;;;;;5093387;28;20447;-69
2023/01/15 12:17:21;;;;;;;1.60;1.20;;;;;;;;;;5093500;28;20459;-69
2023/01/15 12:19:53;;;;;;;1.70;1.30;;;;;;;;;;5093506;28;20459;-69
2023/01/15 12:22:28;;;;;;;1.70;1.17;;;;;;;;;;5093514;28;20454;-69
2023/01/15 12:25:14;;;;;;;5.83;1.93;;;;;;;;;;5093370;28;20899;-69
2023/01/15 12:27:51;;;;;;;3.87;1.40;;;;;;;;;;5093530;28;20435;-69
2023/01/15 12:30:22;;;;;;;1.70;1.20;;;;;;;;;;5092246;28;20467;-69
2023/01/15 12:32:51;;;;;;;6.33;1.20;;;;;;;;;;5093627;28;20435;-69
2023/01/15 12:35:25;;;;;;;2.80;1.10;;;;;;;;;;5093465;28;20442;-69
2023/01/15 12:37:54;;;;;;;1.30;1.10;;;;;;;;;;5093431;28;20900;-69
2023/01/15 12:40:24;;;;;;;2.50;1.00;;;;;;;;;;5093230;28;20430;-69
2023/01/15 12:45:40;;;;;;;1.30;1.00;;;;;;;;;;5093604;28;20406;-69
2023/01/15 12:48:13;;;;;;;1.90;1.30;;;;;;;;;;5093451;28;20482;-69
2023/01/15 12:50:43;;;;;;;2.10;1.47;;;;;;;;;;5092867;28;20430;-69
2023/01/15 12:53:12;;;;;;;2.60;1.47;;;;;;;;;;5094300;28;20443;-69
2023/01/15 12:55:42;;;;;;;1.40;1.10;;;;;;;;;;5094214;28;20457;-69
2023/01/15 12:58:13;;;;;;;2.10;1.30;;;;;;;;;;5093807;28;20478;-69
2023/01/15 13:00:42;;;;;;;2.10;1.57;;;;;;;;;;5094296;28;20799;-69
2023/01/15 13:03:18;;;;;;;2.43;1.70;;;;;;;;;;5094181;28;20820;-69
2023/01/15 13:05:48;;;;;;;2.47;1.23;;;;;;;;;;5093430;28;20439;-69
2023/01/15 13:08:19;;;;;;;2.40;1.60;;;;;;;;;;5093897;28;20510;-69
2023/01/15 13:10:46;;;;;;;2.80;1.60;;;;;;;;;;5093924;28;20474;-69
2023/01/15 13:13:16;;;;;;;2.00;1.27;;;;;;;;;;5093657;28;20817;-69
2023/01/15 13:15:47;;;;;;;3.87;1.97;;;;;;;;;;5093330;28;20502;-68
2023/01/15 13:18:17;;;;;;;3.20;1.70;;;;;;;;;;5093844;28;20478;-69
2023/01/15 13:20:48;;;;;;;3.93;1.90;;;;;;;;;;5093867;28;20908;-69
2023/01/15 13:23:24;;;;;;;3.43;2.60;;;;;;;;;;5094026;28;20443;-69
2023/01/15 13:25:55;;;;;;;2.37;1.43;;;;;;;;;;5093475;28;20434;-69
2023/01/15 13:28:28;;;;;;;3.20;1.67;;;;;;;;;;5093534;28;20835;-68
2023/01/15 13:31:01;;;;;;;1.80;1.23;;;;;;;;;;5093168;28;20439;-68
2023/01/15 13:33:30;;;;;;;2.00;1.70;;;;;;;;;;5093637;28;20923;-68
2023/01/15 13:36:04;;;;;;;1.83;1.10;;;;;;;;;;5093674;28;20852;-68
2023/01/15 13:38:34;;;;;;;2.57;1.90;;;;;;;;;;5093439;28;20471;-68
2023/01/15 13:41:01;;;;;;;2.37;1.80;;;;;;;;;;5093232;28;20439;-68
2023/01/15 13:43:31;;;;;;;3.70;2.53;;;;;;;;;;5093366;28;20962;-68
2023/01/15 13:45:59;;;;;;;2.53;2.20;;;;;;;;;;5093544;28;20930;-68
2023/01/15 13:48:30;;;;;;;5.97;3.70;;;;;;;;;;5093253;28;20475;-69
2023/01/15 13:50:59;;;;;;;4.43;3.50;;;;;;;;;;5093565;28;20438;-68
2023/01/15 13:53:28;;;;;;;1.83;1.23;;;;;;;;;;5091892;28;20944;-68
2023/01/15 13:55:57;;;;;;;2.07;1.50;;;;;;;;;;5093368;28;20434;-68
2023/01/15 13:58:25;;;;;;;2.63;1.57;;;;;;;;;;5093287;28;20470;-69
2023/01/15 14:01:04;;;;;;;1.80;1.20;;;;;;;;;;5093117;28;20458;-68
2023/01/15 14:03:32;;;;;;;2.33;1.63;;;;;;;;;;5092927;28;20939;-68
2023/01/15 14:06:01;;;;;;;1.80;1.40;;;;;;;;;;5092902;28;20461;-69
2023/01/15 14:08:29;;;;;;;1.40;1.20;;;;;;;;;;5092757;28;20475;-69
2023/01/15 14:10:56;;;;;;;1.60;1.20;;;;;;;;;;5093015;28;20454;-69
2023/01/15 14:13:37;;;;;;;2.97;2.30;;;;;;;;;;5092891;28;20442;-69
2023/01/15 14:16:08;;;;;;;1.67;1.30;;;;;;;;;;5092568;28;20439;-69
2023/01/15 14:18:55;;;;;;;2.87;1.83;;;;;;;;;;5092732;28;20477;-69
2023/01/15 14:21:36;;;;;;;2.00;1.60;;;;;;;;;;5092789;28;20873;-69
2023/01/15 14:24:12;;;;;;;3.03;1.67;;;;;;;;;;5092206;28;20664;-69
2023/01/15 14:26:44;;;;;;;2.10;1.83;;;;;;;;;;5093150;28;20435;-69
2023/01/15 14:29:32;;;;;;;5.17;3.70;;;;;;;;;;5092779;28;20969;-69
2023/01/15 14:32:10;;;;;;;2.10;1.50;;;;;;;;;;5091156;28;20438;-69
2023/01/15 14:34:37;;;;;;;2.33;2.13;;;;;;;;;;5092661;28;20795;-69
2023/01/15 14:37:07;;;;;;;4.90;4.07;;;;;;;;;;5093085;28;20435;-69
2023/01/15 14:39:37;;;;;;;3.90;2.17;;;;;;;;;;5093308;28;20463;-70
2023/01/15 14:44:59;;;;;;;3.23;2.60;;;;;;;;;;5092471;28;20407;-69
2023/01/15 14:47:29;;;;;;;3.50;2.60;;;;;;;;;;5093094;28;20446;-68
2023/01/15 14:50:00;;;;;;;3.93;3.30;;;;;;;;;;5092611;28;20490;-69
2023/01/15 14:52:29;;;;;;;7.00;3.70;;;;;;;;;;5092468;28;20850;-68
2023/01/15 14:54:57;;;;;;;2.60;2.40;;;;;;;;;;5092284;28;20950;-68
2023/01/15 14:57:24;;;;;;;3.07;2.37;;;;;;;;;;5092329;28;20454;-68
2023/01/15 14:59:54;;;;;;;3.53;2.40;;;;;;;;;;5092671;28;20467;-69
2023/01/15 15:02:24;;;;;;;3.60;3.00;;;;;;;;;;5092319;28;20458;-68
2023/01/15 15:04:52;;;;;;;4.63;3.20;;;;;;;;;;5091144;28;20455;-69
2023/01/15 15:07:23;;;;;;;3.67;3.00;;;;;;;;;;5091585;28;20649;-68
2023/01/15 15:09:56;;;;;;;2.00;1.70;;;;;;;;;;5092705;28;20510;-69
2023/01/15 15:12:30;;;;;;;2.87;1.67;;;;;;;;;;5092675;28;20438;-69
2023/01/15 15:15:01;;;;;;;1.87;1.70;;;;;;;;;;5091700;28;20437;-68
2023/01/15 15:17:32;;;;;;;2.27;2.00;;;;;;;;;;5091309;28;20951;-68
2023/01/15 15:20:04;;;;;;;2.40;1.60;;;;;;;;;;5091666;28;21001;-68
2023/01/15 15:22:32;;;;;;;2.83;2.30;;;;;;;;;;5092383;28;20442;-69
2023/01/15 15:25:02;;;;;;;1.93;1.57;;;;;;;;;;5092198;28;20451;-69
2023/01/15 15:27:29;;;;;;;3.47;2.37;;;;;;;;;;5092754;28;20438;-68
2023/01/15 15:30:03;;;;;;;3.83;2.60;;;;;;;;;;5094490;28;20517;-68
2023/01/15 15:32:31;;;;;;;1.97;1.60;;;;;;;;;;5095571;28;20441;-69
2023/01/15 15:34:58;;;;;;;5.37;2.90;;;;;;;;;;5095751;28;20454;-69
2023/01/15 15:37:27;;;;;;;4.20;3.40;;;;;;;;;;5095683;28;20447;-68
2023/01/15 15:39:57;;;;;;;13.80;8.30;;;;;;;;;;5095700;28;20466;-68
2023/01/15 15:50:54;;;;;;;6.60;3.80;;;;;;;;;;5095417;28;20547;-68
2023/01/15 15:53:21;;;;;;;6.63;3.63;;;;;;;;;;5087518;28;20454;-68
2023/01/15 15:55:48;;;;;;;5.30;3.20;;;;;;;;;;5073291;28;20451;-68